Time;durP1;ratioP1;P1;durP2;ratioP2;P2;SDS_P1;SDS_P2;PMS_P1;PMS_P2;Temp;Humidity;BMP_temperature;BMP_pressure;BME280_temperature;BME280_humidity;BME280_pressure;Samples;Min_cycle;Max_cycle;Signal;HPM_P1;HPM_P2
2021/08/21 00:00:43;;;;;;;11.90;4.20;;;;;;;20.03;60.02;99214.90;233649;1202;137985;-62
2021/08/21 00:05:47;;;;;;;6.40;3.70;;;;;;;20.05;60.11;99214.48;233562;1203;138616;-63
2021/08/21 00:10:50;;;;;;;8.80;5.00;;;;;;;20.04;60.20;99209.41;233621;1203;138798;-63
2021/08/21 00:15:53;;;;;;;9.10;3.90;;;;;;;20.02;60.38;99205.07;233706;1203;138090;-62
2021/08/21 00:20:57;;;;;;;4.50;3.50;;;;;;;20.00;60.45;99205.42;233669;1203;138593;-64
2021/08/21 00:26:00;;;;;;;6.30;3.60;;;;;;;19.99;60.71;99208.67;233569;1204;137993;-63
2021/08/21 00:31:03;;;;;;;5.00;3.40;;;;;;;19.97;60.77;99215.14;234254;1197;138648;-64
2021/08/21 00:36:07;;;;;;;6.40;4.30;;;;;;;19.97;60.91;99218.87;234187;1197;140464;-64
2021/08/21 00:41:10;;;;;;;9.70;5.30;;;;;;;20.00;60.94;99217.89;234208;1198;138828;-63
2021/08/21 00:46:13;;;;;;;11.70;5.40;;;;;;;20.00;60.89;99212.64;234251;1198;138652;-62
2021/08/21 00:51:17;;;;;;;12.60;4.80;;;;;;;20.00;60.89;99212.91;234168;1198;138187;-64
2021/08/21 00:56:20;;;;;;;9.50;5.20;;;;;;;19.99;60.87;99221.21;234150;1198;138151;-63
2021/08/21 01:01:23;;;;;;;7.90;4.70;;;;;;;19.94;60.83;99212.36;234227;1198;138065;-62
2021/08/21 01:06:26;;;;;;;8.20;4.10;;;;;;;19.89;60.85;99213.55;234144;1197;138459;-63
2021/08/21 01:11:31;;;;;;;8.70;4.60;;;;;;;19.88;60.88;99210.84;234139;1197;138563;-62
2021/08/21 01:16:35;;;;;;;9.50;4.30;;;;;;;19.86;60.94;99211.73;234248;1198;138745;-63
2021/08/21 01:21:40;;;;;;;8.20;4.80;;;;;;;19.84;61.10;99214.20;234193;1198;138023;-63
2021/08/21 01:26:51;;;;;;;10.00;4.70;;;;;;;19.80;61.11;99213.34;234238;1198;138275;-62
2021/08/21 01:32:04;;;;;;;9.10;5.00;;;;;;;19.76;61.12;99205.30;234125;1198;137653;-63
2021/08/21 01:37:09;;;;;;;8.70;5.20;;;;;;;19.72;61.33;99202.30;234190;1195;138529;-64
2021/08/21 01:42:28;;;;;;;7.90;5.40;;;;;;;19.66;61.39;99205.60;234161;1198;137995;-63
2021/08/21 01:47:31;;;;;;;11.60;5.30;;;;;;;19.61;61.51;99205.40;233990;1199;138665;-63
2021/08/21 01:52:34;;;;;;;8.90;5.20;;;;;;;19.62;61.69;99197.98;234272;1199;138384;-62
2021/08/21 01:57:40;;;;;;;11.00;5.20;;;;;;;19.61;61.76;99195.92;234170;1198;138645;-63
2021/08/21 02:03:07;;;;;;;9.30;5.50;;;;;;;19.58;61.94;99195.68;234236;1198;138680;-64
2021/08/21 02:08:14;;;;;;;8.60;5.60;;;;;;;19.54;61.81;99199.48;234127;1198;138023;-63
2021/08/21 02:13:17;;;;;;;10.90;5.50;;;;;;;19.48;61.81;99203.27;234129;1198;137977;-64
2021/08/21 02:18:21;;;;;;;8.60;5.00;;;;;;;19.41;61.90;99206.38;234283;1198;138712;-63
2021/08/21 02:23:44;;;;;;;8.40;4.90;;;;;;;19.34;62.08;99212.15;234261;1198;138650;-63
2021/08/21 02:28:47;;;;;;;11.10;5.60;;;;;;;19.34;62.28;99216.27;234158;1199;138378;-63
2021/08/21 02:33:50;;;;;;;10.70;5.80;;;;;;;19.31;62.28;99213.41;234139;1199;138668;-63
2021/08/21 02:38:53;;;;;;;11.70;5.30;;;;;;;19.27;62.38;99208.77;234247;1198;138119;-63
2021/08/21 02:43:56;;;;;;;17.00;5.40;;;;;;;19.21;62.40;99214.53;234232;1197;138436;-63
2021/08/21 02:48:59;;;;;;;12.00;4.90;;;;;;;19.14;62.44;99219.51;234141;1198;138042;-64
2021/08/21 02:54:03;;;;;;;8.20;5.10;;;;;;;19.06;62.61;99224.90;233918;1199;149861;-64
2021/08/21 02:59:16;;;;;;;10.40;5.50;;;;;;;19.00;62.64;99224.24;233616;1199;140592;-63
2021/08/21 03:04:34;;;;;;;8.80;5.30;;;;;;;18.97;62.79;99219.83;233700;1201;138151;-63
2021/08/21 03:09:58;;;;;;;10.30;5.20;;;;;;;18.96;63.03;99219.46;233862;1198;137516;-63
2021/08/21 03:15:33;;;;;;;7.90;5.40;;;;;;;18.95;63.22;99221.28;234192;1198;138647;-63
2021/08/21 03:20:36;;;;;;;10.30;5.70;;;;;;;18.90;63.13;99221.02;234211;1198;137947;-64
2021/08/21 03:25:40;;;;;;;9.20;5.40;;;;;;;18.82;63.01;99227.33;234388;1198;137994;-63
2021/08/21 03:30:43;;;;;;;7.30;4.40;;;;;;;18.75;63.07;99230.38;234260;1195;138583;-64
2021/08/21 03:35:55;;;;;;;10.50;5.30;;;;;;;18.71;63.23;99234.30;234344;1198;138288;-62
2021/08/21 03:40:58;;;;;;;11.00;5.50;;;;;;;18.69;63.45;99231.14;234284;1198;138666;-64
2021/08/21 03:46:02;;;;;;;12.60;5.80;;;;;;;18.65;63.51;99235.93;234425;1198;138644;-64
2021/08/21 03:51:05;;;;;;;14.60;6.50;;;;;;;18.57;63.64;99239.52;234187;1198;138520;-63
2021/08/21 03:56:27;;;;;;;9.60;5.50;;;;;;;18.50;63.68;99244.33;233714;1199;138040;-62
2021/08/21 04:01:57;;;;;;;8.80;5.00;;;;;;;18.44;63.84;99251.51;233636;1199;138755;-63
2021/08/21 04:07:06;;;;;;;14.90;5.80;;;;;;;18.40;64.00;99257.64;233577;1198;140031;-63
2021/08/21 04:12:10;;;;;;;10.20;6.00;;;;;;;18.39;64.11;99261.88;234264;1198;138827;-63
2021/08/21 04:17:23;;;;;;;8.70;5.30;;;;;;;18.38;64.31;99268.06;234342;1198;138582;-61
2021/08/21 04:22:26;;;;;;;10.60;6.10;;;;;;;18.37;64.40;99279.15;234393;1198;137678;-64
2021/08/21 04:27:33;;;;;;;9.60;5.30;;;;;;;18.33;64.44;99285.80;234283;1198;137963;-63
2021/08/21 04:32:36;;;;;;;9.20;5.70;;;;;;;18.31;64.76;99291.36;234145;1198;139038;-64
2021/08/21 04:37:41;;;;;;;13.80;6.10;;;;;;;18.35;64.83;99291.91;234167;1197;138279;-64
2021/08/21 04:42:45;;;;;;;10.50;6.10;;;;;;;18.44;64.96;99296.63;234300;1198;139292;-63
2021/08/21 04:47:48;;;;;;;12.10;6.40;;;;;;;18.51;64.92;99299.63;234376;1198;138073;-64
2021/08/21 04:52:53;;;;;;;11.80;5.90;;;;;;;18.54;64.91;99304.70;234279;1198;137802;-64
2021/08/21 04:57:56;;;;;;;11.20;5.20;;;;;;;18.55;64.92;99307.30;234189;1198;138382;-64
2021/08/21 05:03:01;;;;;;;12.20;5.10;;;;;;;18.61;64.95;99308.59;234274;1198;138804;-63
2021/08/21 05:08:05;;;;;;;8.90;5.60;;;;;;;18.65;64.99;99308.18;234314;1198;138384;-64
2021/08/21 05:13:09;;;;;;;12.20;6.00;;;;;;;18.72;65.03;99314.97;234142;1198;137698;-63
2021/08/21 05:18:13;;;;;;;10.30;6.00;;;;;;;18.77;65.03;99319.70;234084;1198;138189;-64
2021/08/21 05:23:22;;;;;;;12.00;6.60;;;;;;;18.81;64.93;99319.87;234211;1198;138056;-64
2021/08/21 05:28:26;;;;;;;11.70;5.80;;;;;;;18.81;64.77;99322.20;234296;1198;138324;-63
2021/08/21 05:33:29;;;;;;;9.30;5.80;;;;;;;18.82;64.64;99334.18;234164;1198;138991;-63
2021/08/21 05:38:32;;;;;;;10.60;6.20;;;;;;;18.85;64.68;99338.76;234159;1198;138584;-64
2021/08/21 05:43:35;;;;;;;11.80;5.80;;;;;;;18.89;64.63;99343.17;234327;1198;138054;-63
2021/08/21 05:48:38;;;;;;;10.20;5.70;;;;;;;18.95;64.51;99339.67;234336;1198;138018;-62
2021/08/21 05:53:41;;;;;;;10.20;5.90;;;;;;;18.98;64.55;99341.86;234246;1199;138468;-62
2021/08/21 05:58:44;;;;;;;10.50;5.90;;;;;;;19.02;64.43;99346.35;234275;1198;138757;-64
2021/08/21 06:03:47;;;;;;;10.10;5.00;;;;;;;19.04;64.34;99351.03;234210;1198;138963;-62
2021/08/21 06:08:50;;;;;;;6.30;4.80;;;;;;;19.05;64.34;99354.73;234332;1197;138792;-64
2021/08/21 06:13:53;;;;;;;8.70;5.20;;;;;;;19.08;64.37;99359.61;234133;1198;137967;-64
2021/08/21 06:18:56;;;;;;;9.20;5.80;;;;;;;19.15;64.40;99358.67;234154;1198;137931;-64
2021/08/21 06:24:00;;;;;;;9.40;5.70;;;;;;;19.21;64.30;99360.56;234272;1198;137930;-63
2021/08/21 06:29:03;;;;;;;14.60;5.60;;;;;;;19.27;64.25;99362.42;234371;1197;138023;-63
2021/08/21 06:34:06;;;;;;;11.80;6.20;;;;;;;19.29;64.22;99364.87;234277;1198;138361;-62
2021/08/21 06:39:09;;;;;;;8.60;5.10;;;;;;;19.33;64.19;99359.49;234058;1198;138388;-63
2021/08/21 06:44:12;;;;;;;9.80;5.00;;;;;;;19.38;64.16;99356.16;234061;1198;141443;-62
2021/08/21 06:49:16;;;;;;;11.90;5.40;;;;;;;19.44;64.05;99362.78;234342;1197;139328;-63
2021/08/21 06:54:19;;;;;;;9.70;6.10;;;;;;;19.52;64.11;99368.11;234394;1197;138576;-64
2021/08/21 06:59:25;;;;;;;11.00;6.10;;;;;;;19.61;64.06;99364.10;234355;1194;138875;-62
2021/08/21 07:04:28;;;;;;;10.70;5.90;;;;;;;19.67;63.85;99362.27;234185;1198;140687;-61
2021/08/21 07:09:32;;;;;;;9.20;5.30;;;;;;;19.78;64.14;99361.63;234133;1198;139228;-64
2021/08/21 07:14:35;;;;;;;10.40;5.40;;;;;;;19.96;64.18;99371.52;234207;1198;138141;-65
2021/08/21 07:19:38;;;;;;;7.90;5.30;;;;;;;20.11;64.03;99369.25;234128;1198;139067;-62
2021/08/21 07:24:41;;;;;;;10.70;5.70;;;;;;;20.29;64.06;99371.08;234188;1198;138790;-60
2021/08/21 07:29:44;;;;;;;13.10;6.20;;;;;;;20.51;63.92;99375.64;234064;1198;138906;-61
2021/08/21 07:34:47;;;;;;;12.40;7.00;;;;;;;20.63;63.52;99375.56;234403;1198;138101;-61
2021/08/21 07:39:50;;;;;;;13.00;6.90;;;;;;;20.70;63.28;99377.50;234313;1197;138495;-61
2021/08/21 07:44:53;;;;;;;14.70;9.10;;;;;;;20.76;63.03;99381.80;234253;1198;138333;-61
2021/08/21 07:49:56;;;;;;;13.20;7.20;;;;;;;20.73;62.79;99384.84;234165;1198;138742;-61
2021/08/21 07:54:59;;;;;;;12.80;5.30;;;;;;;20.80;62.86;99386.13;233943;1198;138496;-62
2021/08/21 08:00:03;;;;;;;9.10;5.30;;;;;;;20.86;62.73;99386.95;234436;1198;138949;-60
2021/08/21 08:05:14;;;;;;;9.60;4.80;;;;;;;20.95;62.27;99390.63;234153;1198;138490;-61
2021/08/21 08:10:17;;;;;;;9.90;5.10;;;;;;;21.00;61.84;99393.72;234272;1198;138453;-62
2021/08/21 08:15:21;;;;;;;10.30;5.80;;;;;;;21.07;61.48;99398.02;234254;1197;138270;-62
2021/08/21 08:20:26;;;;;;;8.90;5.40;;;;;;;21.15;61.56;99400.10;234330;1198;138577;-61
2021/08/21 08:25:31;;;;;;;10.60;5.60;;;;;;;21.22;61.44;99403.22;234244;1197;138107;-62
2021/08/21 08:30:33;;;;;;;8.40;5.20;;;;;;;21.20;60.83;99407.54;234013;1198;140261;-60
2021/08/21 08:35:36;;;;;;;7.30;5.50;;;;;;;21.18;60.85;99412.45;234218;1197;138952;-62
2021/08/21 08:40:40;;;;;;;9.90;5.40;;;;;;;21.19;60.67;99412.88;234429;1197;139669;-61
2021/08/21 08:45:44;;;;;;;8.90;5.90;;;;;;;21.21;60.48;99410.69;234235;1198;138861;-64
2021/08/21 08:50:48;;;;;;;9.70;6.30;;;;;;;21.22;59.87;99413.33;233853;1198;138914;-61
2021/08/21 08:55:51;;;;;;;9.20;5.60;;;;;;;21.22;59.46;99411.53;234237;1198;139251;-61
2021/08/21 09:00:54;;;;;;;10.20;6.00;;;;;;;21.23;59.23;99411.15;234257;1197;138831;-64
2021/08/21 09:05:57;;;;;;;7.90;5.20;;;;;;;21.28;59.06;99409.61;234225;1198;138732;-64
2021/08/21 09:11:17;;;;;;;11.40;6.10;;;;;;;21.34;58.83;99407.45;234541;1198;137900;-65
2021/08/21 09:16:25;;;;;;;9.50;5.70;;;;;;;21.44;58.60;99403.33;234273;1197;138528;-63
2021/08/21 09:21:28;;;;;;;11.40;6.00;;;;;;;21.56;58.62;99404.67;234318;1198;138888;-62
2021/08/21 09:26:34;;;;;;;7.90;5.20;;;;;;;21.69;58.67;99405.66;234256;1198;138239;-62
2021/08/21 09:31:38;;;;;;;6.30;4.80;;;;;;;21.74;58.78;99409.15;234280;1198;138164;-62
2021/08/21 09:36:45;;;;;;;9.20;5.30;;;;;;;21.75;58.21;99413.36;234113;1198;137903;-62
2021/08/21 09:42:00;;;;;;;12.20;5.50;;;;;;;21.72;57.89;99417.30;234325;1198;138728;-65
2021/08/21 09:47:26;;;;;;;12.30;5.60;;;;;;;21.71;57.83;99417.46;234389;1197;138264;-60
2021/08/21 09:52:29;;;;;;;7.50;5.10;;;;;;;21.69;57.83;99414.40;234149;1197;139284;-60
2021/08/21 09:57:33;;;;;;;7.40;5.40;;;;;;;21.68;57.48;99411.41;233426;1198;138013;-59
2021/08/21 10:02:37;;;;;;;9.70;5.40;;;;;;;21.68;57.36;99411.39;234255;1198;140066;-59
2021/08/21 10:07:45;;;;;;;8.20;5.70;;;;;;;21.70;57.41;99416.61;234138;1197;137748;-59
2021/08/21 10:12:53;;;;;;;7.90;5.90;;;;;;;21.71;57.13;99412.33;234126;1198;138270;-61
2021/08/21 10:17:56;;;;;;;7.20;5.60;;;;;;;21.77;56.92;99411.71;234137;1198;138188;-59
2021/08/21 10:23:10;;;;;;;9.70;5.40;;;;;;;21.92;56.57;99405.09;234402;1195;138051;-60
2021/08/21 10:28:16;;;;;;;8.70;5.70;;;;;;;22.05;56.18;99401.40;234176;1197;138129;-60
2021/08/21 10:33:19;;;;;;;7.80;6.00;;;;;;;22.15;55.74;99405.63;234132;1198;138037;-61
2021/08/21 10:38:34;;;;;;;7.10;5.50;;;;;;;22.29;55.58;99406.88;233951;1197;140403;-59
2021/08/21 10:43:57;;;;;;;6.80;5.70;;;;;;;22.46;55.44;99400.90;234338;1197;138160;-59
2021/08/21 10:49:03;;;;;;;7.10;5.30;;;;;;;22.65;55.14;99394.21;233887;1198;138623;-61
2021/08/21 10:54:18;;;;;;;7.50;6.10;;;;;;;22.82;55.08;99393.64;234142;1198;140979;-61
2021/08/21 10:59:43;;;;;;;7.20;5.70;;;;;;;23.05;54.74;99385.83;234368;1198;138205;-61
2021/08/21 11:04:47;;;;;;;8.90;6.20;;;;;;;23.28;54.31;99384.56;234298;1194;138323;-64
2021/08/21 11:10:17;;;;;;;6.00;5.30;;;;;;;23.49;53.85;99379.18;234129;1198;138076;-62
2021/08/21 11:15:23;;;;;;;8.50;5.80;;;;;;;23.70;53.67;99374.06;234157;1197;138233;-62
2021/08/21 11:20:32;;;;;;;7.00;5.50;;;;;;;23.95;53.20;99371.16;234233;1198;137995;-61
2021/08/21 11:25:37;;;;;;;6.50;5.30;;;;;;;24.14;53.01;99368.12;234338;1198;137864;-61
2021/08/21 11:30:41;;;;;;;8.80;5.20;;;;;;;24.27;52.57;99365.33;233939;1198;137984;-62
2021/08/21 11:35:53;;;;;;;9.90;5.10;;;;;;;24.33;51.74;99369.02;234252;1198;138087;-64
2021/08/21 11:40:59;;;;;;;8.70;5.30;;;;;;;24.53;51.29;99365.88;234207;1197;138563;-62
2021/08/21 11:46:03;;;;;;;7.60;4.90;;;;;;;24.76;51.39;99362.95;234356;1197;138684;-64
2021/08/21 11:51:08;;;;;;;8.70;4.90;;;;;;;25.00;50.84;99362.42;234032;1198;139410;-62
2021/08/21 11:56:14;;;;;;;8.70;4.90;;;;;;;25.21;50.20;99363.38;234064;1199;138561;-60
2021/08/21 12:01:21;;;;;;;7.10;5.40;;;;;;;25.35;49.47;99363.16;234243;1198;138949;-60
2021/08/21 12:06:27;;;;;;;6.40;4.80;;;;;;;25.46;49.23;99356.19;234249;1198;138060;-62
2021/08/21 12:11:31;;;;;;;9.00;5.30;;;;;;;25.57;48.95;99345.89;234231;1197;137641;-60
2021/08/21 12:16:35;;;;;;;8.60;5.10;;;;;;;25.77;48.92;99348.13;234154;1198;139137;-61
2021/08/21 12:21:39;;;;;;;6.60;5.70;;;;;;;25.95;48.86;99350.52;234291;1198;139848;-63
2021/08/21 12:26:44;;;;;;;6.60;5.40;;;;;;;26.15;48.58;99345.48;234327;1197;138297;-62
2021/08/21 12:31:51;;;;;;;8.10;5.40;;;;;;;26.38;48.59;99348.19;234133;1197;138617;-61
2021/08/21 12:36:59;;;;;;;6.10;5.30;;;;;;;26.52;48.20;99346.30;233964;1198;138543;-64
2021/08/21 12:42:05;;;;;;;8.90;5.10;;;;;;;26.63;47.53;99338.16;234385;1197;137553;-63
2021/08/21 12:47:16;;;;;;;6.20;4.70;;;;;;;26.60;46.94;99343.63;234330;1197;223139;-62
2021/08/21 12:56:10;;;;;;;6.60;4.70;;;;;;;26.84;46.77;99336.11;231063;1217;634440;-64
2021/08/21 13:01:40;;;;;;;5.20;4.50;;;;;;;26.86;45.75;99336.59;232891;1206;137570;-63
2021/08/21 13:07:12;;;;;;;9.10;5.10;;;;;;;26.94;45.46;99329.78;232896;1201;137755;-56
2021/08/21 13:12:43;;;;;;;9.90;5.50;;;;;;;26.80;45.50;99334.63;233019;1204;137768;-62
2021/08/21 13:17:47;;;;;;;6.90;5.30;;;;;;;26.50;45.32;99337.88;233525;1204;138050;-60
2021/08/21 13:22:53;;;;;;;8.60;5.20;;;;;;;26.35;45.53;99333.38;233489;1204;138769;-61
2021/08/21 13:27:56;;;;;;;8.60;5.40;;;;;;;26.45;45.69;99331.65;233635;1204;137405;-59
2021/08/21 13:32:59;;;;;;;7.00;4.90;;;;;;;26.62;45.40;99323.12;233721;1202;137687;-61
2021/08/21 13:38:03;;;;;;;6.20;5.40;;;;;;;26.77;45.03;99316.53;233770;1202;137590;-61
2021/08/21 13:43:07;;;;;;;7.20;5.30;;;;;;;26.87;44.49;99311.43;233807;1201;138083;-59
2021/08/21 13:48:10;;;;;;;7.60;5.10;;;;;;;27.06;44.58;99313.45;233795;1202;138190;-59
2021/08/21 13:53:13;;;;;;;9.60;5.40;;;;;;;27.23;44.85;99305.30;233662;1201;138507;-61
2021/08/21 13:58:16;;;;;;;6.40;4.90;;;;;;;27.40;44.54;99305.55;233735;1202;137753;-58
2021/08/21 14:03:18;;;;;;;11.60;6.10;;;;;;;27.54;44.60;99303.10;233576;1203;137855;-63
2021/08/21 14:08:23;;;;;;;6.60;5.10;;;;;;;27.69;44.70;99303.08;233671;1202;137578;-62
2021/08/21 14:13:26;;;;;;;6.80;5.80;;;;;;;27.79;44.31;99300.48;233915;1200;138389;-63
2021/08/21 14:18:29;;;;;;;10.40;5.30;;;;;;;27.88;44.50;99303.66;233832;1201;137776;-63
2021/08/21 14:23:32;;;;;;;8.80;5.60;;;;;;;27.90;44.16;99295.68;233976;1201;138350;-63
2021/08/21 14:28:36;;;;;;;6.40;5.40;;;;;;;27.82;43.78;99294.45;233748;1201;138380;-63
2021/08/21 14:33:40;;;;;;;6.40;5.20;;;;;;;27.62;43.56;99294.65;233910;1201;140008;-63
2021/08/21 14:38:43;;;;;;;8.40;5.00;;;;;;;27.36;43.12;99297.11;233892;1201;139168;-63
2021/08/21 14:43:48;;;;;;;7.80;5.20;;;;;;;27.03;42.97;99295.05;233973;1201;139615;-63
2021/08/21 14:48:50;;;;;;;7.20;5.40;;;;;;;26.69;42.96;99291.15;233900;1201;138028;-62
2021/08/21 14:53:54;;;;;;;6.60;5.10;;;;;;;26.38;43.36;99297.40;234076;1201;138837;-62
2021/08/21 14:58:57;;;;;;;5.80;4.80;;;;;;;26.02;43.33;99296.74;233899;1201;137519;-62
2021/08/21 15:04:02;;;;;;;5.90;4.70;;;;;;;25.72;43.51;99295.47;233861;1201;139405;-63
2021/08/21 15:09:06;;;;;;;5.60;4.70;;;;;;;25.40;43.79;99291.48;233669;1200;138676;-65
2021/08/21 15:14:20;;;;;;;5.20;4.50;;;;;;;25.19;43.64;99290.36;233163;1200;138539;-63
2021/08/21 15:19:30;;;;;;;11.20;6.80;;;;;;;25.05;43.57;99284.98;233343;1201;138222;-62
2021/08/21 15:24:34;;;;;;;6.40;5.60;;;;;;;24.93;43.91;99284.17;234131;1200;137804;-62
2021/08/21 15:29:39;;;;;;;7.20;5.50;;;;;;;24.82;44.25;99276.88;233875;1201;137626;-62
2021/08/21 15:34:44;;;;;;;7.80;4.50;;;;;;;24.70;44.75;99280.52;233936;1201;137792;-62
2021/08/21 15:39:47;;;;;;;6.60;5.90;;;;;;;24.60;44.76;99280.66;233858;1201;137832;-61
2021/08/21 15:44:50;;;;;;;7.10;4.20;;;;;;;24.50;45.33;99275.86;233838;1201;137758;-62
2021/08/21 15:49:53;;;;;;;6.00;4.30;;;;;;;24.38;45.54;99274.13;233973;1201;138765;-63
2021/08/21 15:54:56;;;;;;;5.20;4.20;;;;;;;24.29;45.82;99274.23;233923;1201;138445;-62
2021/08/21 15:59:59;;;;;;;6.00;4.10;;;;;;;24.19;45.87;99274.48;233954;1201;138565;-62
2021/08/21 16:05:04;;;;;;;6.50;3.80;;;;;;;24.12;46.19;99276.27;233890;1200;137988;-62
2021/08/21 16:10:08;;;;;;;5.50;4.00;;;;;;;24.03;46.37;99278.86;234000;1200;138217;-62
2021/08/21 16:15:11;;;;;;;7.50;4.50;;;;;;;23.95;46.63;99270.60;233970;1201;137948;-62
2021/08/21 16:20:14;;;;;;;5.50;4.10;;;;;;;23.85;46.72;99275.29;233973;1201;138863;-63
2021/08/21 16:25:17;;;;;;;5.50;4.20;;;;;;;23.77;47.03;99278.50;233431;1202;138239;-63
2021/08/21 16:30:20;;;;;;;8.70;4.30;;;;;;;23.69;47.28;99280.73;233971;1201;138086;-62
2021/08/21 16:35:23;;;;;;;5.70;4.20;;;;;;;23.60;47.45;99280.62;233589;1201;138616;-61
2021/08/21 16:40:27;;;;;;;5.70;4.20;;;;;;;23.53;47.65;99286.83;233644;1200;137841;-62
2021/08/21 16:45:30;;;;;;;5.50;4.00;;;;;;;23.45;47.87;99285.79;233862;1202;137753;-64
2021/08/21 16:50:33;;;;;;;4.80;3.70;;;;;;;23.39;48.00;99281.54;233840;1201;137765;-60
2021/08/21 16:55:36;;;;;;;23.40;5.80;;;;;;;23.34;48.36;99281.09;233844;1201;138619;-63
2021/08/21 17:00:39;;;;;;;6.20;4.30;;;;;;;23.28;48.50;99282.55;234049;1201;138078;-62
2021/08/21 17:05:43;;;;;;;6.70;4.50;;;;;;;23.23;48.67;99281.57;233927;1201;137875;-62
2021/08/21 17:10:46;;;;;;;6.70;4.70;;;;;;;23.17;48.77;99290.49;233876;1201;137911;-63
2021/08/21 17:15:49;;;;;;;6.00;3.90;;;;;;;23.09;48.81;99292.43;233953;1200;138311;-62
2021/08/21 17:20:53;;;;;;;6.00;4.40;;;;;;;23.02;49.01;99292.36;233894;1197;138398;-63
2021/08/21 17:25:56;;;;;;;6.20;4.20;;;;;;;22.94;49.12;99296.52;233908;1201;138273;-62
2021/08/21 17:30:59;;;;;;;7.00;3.80;;;;;;;22.87;49.20;99305.21;233835;1200;137998;-67
2021/08/21 17:36:02;;;;;;;6.90;4.10;;;;;;;22.78;49.10;99309.12;233887;1201;137861;-66
2021/08/21 17:41:05;;;;;;;5.70;4.30;;;;;;;22.69;49.06;99309.17;233663;1202;137916;-66
2021/08/21 17:46:08;;;;;;;6.00;4.30;;;;;;;22.59;49.13;99316.23;233921;1201;139051;-66
2021/08/21 17:51:12;;;;;;;6.70;4.70;;;;;;;22.48;49.37;99314.91;233894;1201;138044;-68
2021/08/21 17:56:15;;;;;;;9.10;5.20;;;;;;;22.36;49.54;99322.27;234156;1198;138538;-65
2021/08/21 18:01:18;;;;;;;7.90;4.60;;;;;;;22.25;49.71;99327.48;234085;1198;138551;-65
2021/08/21 18:06:22;;;;;;;7.80;5.20;;;;;;;22.13;49.91;99329.80;234152;1200;140746;-67
2021/08/21 18:11:25;;;;;;;7.80;4.50;;;;;;;21.99;50.26;99333.38;234043;1199;138232;-68
2021/08/21 18:16:29;;;;;;;10.60;5.40;;;;;;;21.87;50.47;99341.65;233995;1199;138518;-66
2021/08/21 18:21:33;;;;;;;11.40;6.40;;;;;;;21.77;50.65;99340.89;234011;1200;138707;-65
2021/08/21 18:26:37;;;;;;;13.50;6.60;;;;;;;21.66;51.01;99350.38;234187;1198;138089;-67
2021/08/21 18:31:40;;;;;;;13.50;6.80;;;;;;;21.56;51.28;99352.70;234175;1198;137852;-67
2021/08/21 18:36:43;;;;;;;10.40;6.90;;;;;;;21.46;51.53;99358.15;234232;1198;138786;-66
2021/08/21 18:41:47;;;;;;;11.90;7.00;;;;;;;21.36;51.80;99356.48;234016;1195;138469;-67
2021/08/21 18:46:50;;;;;;;12.00;7.30;;;;;;;21.28;52.05;99365.08;233954;1198;137999;-67
2021/08/21 18:51:53;;;;;;;14.80;7.70;;;;;;;21.19;52.14;99369.23;234142;1198;138089;-66
2021/08/21 18:56:56;;;;;;;13.50;7.90;;;;;;;21.10;52.42;99368.52;234190;1198;138201;-66
2021/08/21 19:01:59;;;;;;;20.00;8.30;;;;;;;21.01;52.65;99371.41;234038;1199;138124;-66
2021/08/21 19:07:03;;;;;;;14.50;10.10;;;;;;;20.94;53.11;99379.36;233959;1199;137934;-67
2021/08/21 19:12:06;;;;;;;23.10;11.50;;;;;;;20.87;53.52;99379.44;233939;1198;139474;-67
2021/08/21 19:17:10;;;;;;;19.60;12.50;;;;;;;20.80;53.93;99376.92;233731;1198;138391;-64
2021/08/21 19:22:13;;;;;;;23.80;12.20;;;;;;;20.71;54.29;99376.77;234084;1198;138318;-64
2021/08/21 19:27:16;;;;;;;18.10;11.90;;;;;;;20.60;54.67;99384.48;234035;1199;138159;-67
2021/08/21 19:32:19;;;;;;;20.10;11.90;;;;;;;20.52;55.03;99383.50;234109;1198;138623;-67
2021/08/21 19:37:22;;;;;;;24.20;12.40;;;;;;;20.46;55.42;99387.42;234074;1199;138901;-64
2021/08/21 19:42:26;;;;;;;24.30;13.10;;;;;;;20.43;55.70;99387.79;234057;1199;138560;-64
2021/08/21 19:47:29;;;;;;;23.70;11.80;;;;;;;20.39;55.89;99385.77;234123;1198;138876;-66
2021/08/21 19:52:33;;;;;;;22.10;12.50;;;;;;;20.35;55.85;99388.94;234170;1198;138829;-67
2021/08/21 19:57:36;;;;;;;23.70;12.80;;;;;;;20.29;56.15;99388.92;234014;1201;139342;-67
2021/08/21 20:02:39;;;;;;;26.00;14.70;;;;;;;20.21;56.29;99390.21;234111;1198;138399;-64
2021/08/21 20:07:43;;;;;;;26.30;15.20;;;;;;;20.14;56.53;99386.92;234163;1198;139378;-65
2021/08/21 20:12:47;;;;;;;28.10;14.90;;;;;;;20.06;56.59;99387.52;234213;1198;138694;-65
2021/08/21 20:17:50;;;;;;;23.90;15.10;;;;;;;19.96;56.87;99384.89;234045;1200;138703;-65
2021/08/21 20:22:54;;;;;;;25.90;15.00;;;;;;;19.88;57.05;99383.34;233488;1201;138094;-65
2021/08/21 20:27:58;;;;;;;26.90;15.30;;;;;;;19.82;57.25;99381.73;233999;1198;138859;-68
2021/08/21 20:33:01;;;;;;;33.10;16.70;;;;;;;19.78;57.35;99386.27;233640;1199;139649;-67
2021/08/21 20:38:04;;;;;;;29.90;17.80;;;;;;;19.76;57.75;99382.15;234094;1198;138338;-66
2021/08/21 20:43:07;;;;;;;42.70;20.80;;;;;;;19.74;57.84;99386.14;234064;1198;138413;-67
2021/08/21 20:48:11;;;;;;;42.80;23.50;;;;;;;19.66;57.87;99387.52;234260;1198;138737;-66
2021/08/21 20:53:14;;;;;;;42.90;21.80;;;;;;;19.57;58.09;99387.83;234090;1198;139681;-68
2021/08/21 20:58:17;;;;;;;40.80;20.60;;;;;;;19.50;58.23;99388.01;234033;1199;138682;-65
2021/08/21 21:03:23;;;;;;;42.10;21.70;;;;;;;19.39;58.34;99388.61;234035;1198;138482;-67
2021/08/21 21:08:26;;;;;;;;;;;;;;;19.28;58.48;99395.04;234107;1198;138061;-66
2021/08/21 21:13:29;;;;;;;35.60;19.10;;;;;;;19.17;58.73;99390.70;234079;1199;126944;-67
2021/08/21 21:18:32;;;;;;;38.50;20.20;;;;;;;19.09;58.80;99391.77;234117;1199;138965;-67
2021/08/21 21:23:38;;;;;;;37.30;19.60;;;;;;;19.03;59.05;99394.48;234012;1199;138953;-66
2021/08/21 21:28:41;;;;;;;37.40;19.30;;;;;;;18.97;59.16;99392.46;234118;1198;138804;-67
2021/08/21 21:33:47;;;;;;;35.70;19.10;;;;;;;18.87;59.21;99391.41;234105;1198;138161;-66
2021/08/21 21:38:50;;;;;;;43.40;19.20;;;;;;;18.80;59.46;99391.67;234116;1199;138487;-66
2021/08/21 21:43:53;;;;;;;34.80;18.40;;;;;;;18.72;59.43;99391.55;234098;1195;138305;-66
2021/08/21 21:48:56;;;;;;;30.00;16.90;;;;;;;18.63;59.72;99392.52;234178;1198;138589;-65
2021/08/21 21:54:00;;;;;;;30.20;16.50;;;;;;;18.57;59.82;99398.95;233718;1198;139116;-64
2021/08/21 21:59:03;;;;;;;31.20;17.70;;;;;;;18.55;59.97;99396.80;234057;1199;139897;-66
2021/08/21 22:04:07;;;;;;;28.10;16.90;;;;;;;18.50;59.95;99394.58;233526;1199;138536;-65
2021/08/21 22:09:32;;;;;;;29.40;17.20;;;;;;;18.41;60.15;99395.73;233389;1202;144774;-65
2021/08/21 22:14:49;;;;;;;30.10;16.70;;;;;;;18.33;60.24;99391.73;233853;1198;139339;-66
2021/08/21 22:19:52;;;;;;;30.10;16.20;;;;;;;18.26;60.49;99389.47;233964;1198;139053;-68
2021/08/21 22:24:55;;;;;;;25.50;15.50;;;;;;;18.21;60.60;99390.16;233761;1198;138561;-65
2021/08/21 22:29:58;;;;;;;29.30;14.70;;;;;;;18.14;60.67;99388.92;234047;1198;139656;-64
2021/08/21 22:35:04;;;;;;;27.40;16.10;;;;;;;18.09;60.78;99388.30;234205;1198;139337;-65
2021/08/21 22:40:09;;;;;;;33.50;16.40;;;;;;;18.04;60.86;99386.76;234140;1198;139161;-63
2021/08/21 22:45:12;;;;;;;27.10;15.90;;;;;;;17.97;60.88;99386.10;233743;1200;139834;-64
2021/08/21 22:50:15;;;;;;;27.50;15.70;;;;;;;17.93;61.23;99382.54;234182;1198;140022;-64
2021/08/21 22:55:19;;;;;;;30.10;15.70;;;;;;;17.88;61.15;99381.35;234071;1198;139788;-64
2021/08/21 23:00:22;;;;;;;23.50;14.10;;;;;;;17.82;61.18;99376.30;234176;1198;139705;-64
2021/08/21 23:05:25;;;;;;;25.60;14.30;;;;;;;17.80;61.45;99375.41;234074;1198;138937;-67
2021/08/21 23:10:28;;;;;;;26.80;14.90;;;;;;;17.75;61.52;99372.00;234069;1199;139263;-63
2021/08/21 23:15:31;;;;;;;23.20;14.60;;;;;;;17.73;61.66;99367.00;234096;1198;138618;-64